Time;durP1;ratioP1;P1;durP2;ratioP2;P2;SDS_P1;SDS_P2;PMS_P1;PMS_P2;Temp;Humidity;BMP_temperature;BMP_pressure;BME280_temperature;BME280_humidity;BME280_pressure;Samples;Min_cycle;Max_cycle;Signal;HPM_P1;HPM_P2
2023/07/24 00:01:19;;;;;;;2.30;1.60;;;21.00;99.90;;;;;;5011394;28;20508;-78
2023/07/24 00:03:45;;;;;;;2.90;1.87;;;20.90;99.90;;;;;;5029025;28;20186;-78
2023/07/24 00:06:11;;;;;;;2.93;1.60;;;20.90;99.90;;;;;;5016329;28;20201;-78
2023/07/24 00:08:37;;;;;;;3.30;1.70;;;20.90;99.90;;;;;;5016106;28;20574;-78
2023/07/24 00:11:06;;;;;;;3.10;1.63;;;20.90;99.90;;;;;;5015348;28;20269;-78
2023/07/24 00:13:32;;;;;;;2.70;2.07;;;20.80;99.90;;;;;;5016777;28;20621;-77
2023/07/24 00:15:58;;;;;;;3.13;1.77;;;20.80;99.90;;;;;;5016655;28;20605;-78
2023/07/24 00:18:24;;;;;;;2.57;1.70;;;20.80;99.90;;;;;;5030869;28;21163;-78
2023/07/24 00:20:50;;;;;;;2.57;1.50;;;20.80;99.90;;;;;;5036825;28;20177;-77
2023/07/24 00:23:15;;;;;;;2.57;1.70;;;20.70;99.90;;;;;;5020603;28;20174;-79
2023/07/24 00:25:41;;;;;;;2.80;1.70;;;20.70;99.90;;;;;;5024437;28;20214;-78
2023/07/24 00:28:07;;;;;;;3.00;1.93;;;20.60;99.90;;;;;;5019831;28;20553;-76
2023/07/24 00:30:32;;;;;;;2.67;1.60;;;20.60;99.90;;;;;;5018537;28;20174;-78
2023/07/24 00:32:58;;;;;;;3.00;1.87;;;20.60;99.90;;;;;;5035085;28;20245;-78
2023/07/24 00:35:25;;;;;;;4.70;2.10;;;20.70;99.90;;;;;;5019838;28;20284;-78
2023/07/24 00:37:50;;;;;;;2.10;1.53;;;20.70;99.90;;;;;;5018364;28;20252;-77
2023/07/24 00:40:16;;;;;;;2.00;1.60;;;20.60;99.90;;;;;;5032402;28;20585;-78
2023/07/24 00:42:47;;;;;;;2.77;1.40;;;20.60;99.90;;;;;;5017346;28;20603;-78
2023/07/24 00:45:13;;;;;;;3.93;1.40;;;20.60;99.90;;;;;;5031360;28;20224;-78
2023/07/24 00:47:39;;;;;;;2.13;1.37;;;20.60;99.90;;;;;;5031363;28;20565;-78
2023/07/24 00:50:05;;;;;;;2.33;1.70;;;20.60;99.90;;;;;;5015815;28;20240;-78
2023/07/24 00:52:32;;;;;;;2.40;1.40;;;20.60;99.90;;;;;;5013910;28;20202;-77
2023/07/24 00:54:58;;;;;;;1.90;1.53;;;20.60;99.90;;;;;;5014712;28;21153;-77
2023/07/24 00:57:24;;;;;;;2.00;1.57;;;20.50;99.90;;;;;;5011474;28;20182;-77
2023/07/24 00:59:49;;;;;;;2.90;1.17;;;20.50;99.90;;;;;;5012000;28;20664;-76
2023/07/24 01:02:16;;;;;;;1.80;1.50;;;20.50;99.90;;;;;;5004914;28;20178;-77
2023/07/24 01:04:42;;;;;;;3.50;2.03;;;20.50;99.90;;;;;;5021561;28;21279;-77
2023/07/24 01:07:08;;;;;;;2.80;1.93;;;20.50;99.90;;;;;;5002422;28;20170;-77
2023/07/24 01:09:34;;;;;;;2.77;2.20;;;20.40;99.90;;;;;;5032011;28;20557;-77
2023/07/24 01:12:10;;;;;;;4.00;1.60;;;20.40;99.90;;;;;;5003823;28;20602;-77
2023/07/24 01:14:47;;;;;;;2.47;1.43;;;20.40;99.90;;;;;;5008333;28;20672;-76
2023/07/24 01:17:17;;;;;;;2.70;1.93;;;20.40;99.90;;;;;;5032400;28;20941;-78
2023/07/24 01:19:48;;;;;;;3.90;1.63;;;20.30;99.90;;;;;;5039211;28;20951;-78
2023/07/24 01:22:29;;;;;;;3.37;1.73;;;20.30;99.90;;;;;;5037236;28;20927;-77
2023/07/24 01:25:35;;;;;;;3.20;2.20;;;20.30;99.90;;;;;;5056852;28;20709;-77
2023/07/24 01:28:05;;;;;;;2.77;1.90;;;20.30;99.90;;;;;;5056391;28;20925;-77
2023/07/24 01:30:31;;;;;;;2.60;1.67;;;20.20;99.90;;;;;;5053803;28;20941;-76
2023/07/24 01:32:57;;;;;;;4.80;1.97;;;20.20;99.90;;;;;;5036011;28;20588;-78
2023/07/24 01:35:23;;;;;;;2.53;1.80;;;20.20;99.90;;;;;;5058707;28;20194;-78
2023/07/24 01:37:49;;;;;;;3.40;2.23;;;20.20;99.90;;;;;;5043667;28;20189;-78
2023/07/24 01:40:16;;;;;;;2.83;1.93;;;20.20;99.90;;;;;;5041160;28;20664;-78
2023/07/24 01:42:42;;;;;;;2.70;2.13;;;20.20;99.90;;;;;;5046104;28;20608;-78
2023/07/24 01:45:08;;;;;;;3.10;1.80;;;20.20;99.90;;;;;;5059162;28;20667;-78
2023/07/24 01:47:34;;;;;;;2.67;1.63;;;20.20;99.90;;;;;;5039894;28;20598;-78
2023/07/24 01:50:00;;;;;;;4.13;1.70;;;20.20;99.90;;;;;;5009246;28;20582;-78
2023/07/24 01:52:26;;;;;;;2.43;1.60;;;20.20;99.90;;;;;;5012752;28;20168;-78
2023/07/24 01:54:52;;;;;;;3.20;2.13;;;20.20;99.90;;;;;;4997654;28;20206;-78
2023/07/24 01:57:18;;;;;;;2.30;1.67;;;20.20;99.90;;;;;;4998935;28;21079;-78
2023/07/24 01:59:44;;;;;;;2.47;1.90;;;20.30;99.90;;;;;;4967525;28;20233;-78
2023/07/24 02:02:11;;;;;;;3.23;1.60;;;20.30;99.90;;;;;;5013280;28;20191;-78
2023/07/24 02:04:36;;;;;;;2.77;2.37;;;20.30;99.90;;;;;;5018215;28;21200;-77
2023/07/24 02:07:03;;;;;;;2.23;1.77;;;20.30;99.90;;;;;;5003042;28;20582;-76
2023/07/24 02:09:29;;;;;;;2.67;2.43;;;20.40;99.90;;;;;;4993885;28;20583;-76
2023/07/24 02:11:54;;;;;;;3.80;2.30;;;20.40;99.90;;;;;;5010966;28;20685;-76
2023/07/24 02:14:21;;;;;;;2.70;1.40;;;20.50;99.90;;;;;;4995648;28;20214;-77
2023/07/24 02:16:46;;;;;;;2.60;2.13;;;20.50;99.90;;;;;;4978256;28;20190;-76
2023/07/24 02:19:12;;;;;;;3.30;1.90;;;20.60;99.90;;;;;;5010177;28;20587;-78
2023/07/24 02:21:38;;;;;;;4.37;2.43;;;20.60;99.90;;;;;;4993310;28;20626;-77
2023/07/24 02:24:04;;;;;;;3.30;2.50;;;20.60;99.90;;;;;;4995169;28;20183;-77
2023/07/24 02:26:30;;;;;;;2.23;1.90;;;20.50;99.90;;;;;;5001221;28;20191;-78
2023/07/24 02:28:56;;;;;;;2.30;1.70;;;20.50;99.90;;;;;;5021887;28;20586;-78
2023/07/24 02:31:21;;;;;;;3.30;2.53;;;20.30;99.90;;;;;;5017726;28;20179;-76
2023/07/24 02:33:48;;;;;;;3.23;1.90;;;20.30;99.90;;;;;;5002404;28;20646;-77
2023/07/24 02:36:14;;;;;;;3.70;2.10;;;20.20;99.90;;;;;;5001758;28;20617;-77
2023/07/24 02:38:40;;;;;;;3.50;2.80;;;20.10;99.90;;;;;;5018102;28;20228;-76
2023/07/24 02:41:06;;;;;;;3.30;2.57;;;20.00;99.90;;;;;;5019016;28;20581;-78
2023/07/24 02:43:32;;;;;;;3.30;2.03;;;20.00;99.90;;;;;;5021200;28;20582;-78
2023/07/24 02:46:02;;;;;;;3.10;2.30;;;19.90;99.90;;;;;;5021974;28;20233;-77
2023/07/24 02:48:28;;;;;;;3.07;2.40;;;19.90;99.90;;;;;;5005286;28;20183;-77
2023/07/24 02:50:54;;;;;;;3.03;2.07;;;19.90;99.90;;;;;;4989344;28;20590;-78
2023/07/24 02:53:20;;;;;;;4.60;3.03;;;19.80;99.90;;;;;;5006610;28;20597;-77
2023/07/24 02:55:46;;;;;;;3.30;2.07;;;19.80;99.90;;;;;;5022865;28;20198;-78
2023/07/24 02:58:13;;;;;;;3.50;2.27;;;19.80;99.90;;;;;;5024900;28;20677;-77
2023/07/24 03:00:40;;;;;;;2.70;2.03;;;19.80;99.90;;;;;;5007201;28;20197;-77
2023/07/24 03:03:05;;;;;;;3.90;2.47;;;19.80;99.90;;;;;;4990723;28;20711;-78
2023/07/24 03:05:33;;;;;;;2.80;2.13;;;19.80;99.90;;;;;;5022739;28;21191;-78
2023/07/24 03:07:59;;;;;;;3.20;2.13;;;19.80;99.90;;;;;;5021617;28;20629;-77
2023/07/24 03:10:25;;;;;;;3.87;2.80;;;19.80;99.90;;;;;;5020790;28;20581;-77
2023/07/24 03:12:52;;;;;;;2.73;2.13;;;19.80;99.90;;;;;;5015401;28;20178;-78
2023/07/24 03:15:18;;;;;;;3.10;2.27;;;19.90;99.90;;;;;;5022832;28;20748;-77
2023/07/24 03:17:44;;;;;;;3.50;1.57;;;19.90;99.90;;;;;;5044968;28;20174;-78
2023/07/24 03:20:18;;;;;;;3.53;2.67;;;19.90;99.90;;;;;;5045877;28;20577;-77
2023/07/24 03:22:44;;;;;;;4.77;2.17;;;19.90;99.90;;;;;;5027526;28;20175;-77
2023/07/24 03:25:10;;;;;;;3.30;2.70;;;19.90;99.90;;;;;;5040132;28;20639;-78
2023/07/24 03:27:36;;;;;;;3.10;2.30;;;19.90;99.90;;;;;;5021815;28;20581;-77
2023/07/24 03:30:03;;;;;;;4.30;2.10;;;19.90;99.90;;;;;;5022035;28;20684;-78
2023/07/24 03:32:29;;;;;;;3.83;2.33;;;19.90;99.90;;;;;;5022409;28;21107;-78
2023/07/24 03:34:55;;;;;;;2.60;2.10;;;20.00;99.90;;;;;;5035089;28;20675;-78
2023/07/24 03:37:21;;;;;;;5.00;2.67;;;20.00;99.90;;;;;;5017756;28;20585;-78
2023/07/24 03:39:47;;;;;;;4.47;2.57;;;19.90;99.90;;;;;;5035764;28;20186;-78
2023/07/24 03:42:27;;;;;;;2.93;2.20;;;19.90;99.90;;;;;;5016158;28;20899;-78
2023/07/24 03:44:54;;;;;;;4.70;2.50;;;19.90;99.90;;;;;;5021766;28;20685;-78
2023/07/24 03:47:20;;;;;;;4.03;2.73;;;19.90;99.90;;;;;;5033829;28;20672;-78
2023/07/24 03:49:45;;;;;;;5.10;2.57;;;19.90;99.90;;;;;;5028549;28;20588;-78
2023/07/24 03:52:11;;;;;;;3.97;2.50;;;19.90;99.90;;;;;;5021304;28;20229;-78
2023/07/24 03:54:37;;;;;;;2.33;1.80;;;19.90;99.90;;;;;;5034974;28;20206;-78
2023/07/24 03:57:03;;;;;;;2.60;1.97;;;20.00;99.90;;;;;;5020927;28;20209;-78
2023/07/24 03:59:30;;;;;;;3.03;2.07;;;20.00;99.90;;;;;;5019190;28;20621;-78
2023/07/24 04:01:55;;;;;;;4.00;2.03;;;20.00;99.90;;;;;;5035945;28;20680;-78
2023/07/24 04:04:21;;;;;;;2.77;2.10;;;20.00;99.90;;;;;;5016199;28;20803;-77
2023/07/24 04:06:47;;;;;;;5.60;2.57;;;20.00;99.90;;;;;;5016436;28;20173;-77
2023/07/24 04:09:15;;;;;;;3.60;2.10;;;20.00;99.90;;;;;;5013691;28;20174;-76
2023/07/24 04:11:43;;;;;;;3.27;2.53;;;20.10;99.90;;;;;;5013820;28;20574;-76
2023/07/24 04:14:08;;;;;;;4.73;2.47;;;20.10;99.90;;;;;;5028758;28;20676;-76
2023/07/24 04:16:34;;;;;;;3.30;1.93;;;20.10;99.90;;;;;;5014209;28;20713;-77
2023/07/24 04:19:00;;;;;;;3.47;2.03;;;20.10;99.90;;;;;;5016878;28;20178;-78
2023/07/24 04:21:26;;;;;;;5.03;2.60;;;20.10;99.90;;;;;;5016264;28;20185;-78
2023/07/24 04:23:52;;;;;;;1.90;1.70;;;20.10;99.90;;;;;;5023622;28;20565;-78
2023/07/24 04:26:18;;;;;;;3.40;2.53;;;20.10;99.90;;;;;;5031912;28;20233;-77
2023/07/24 04:28:43;;;;;;;3.50;2.37;;;20.10;99.90;;;;;;5044732;28;20516;-77
2023/07/24 04:31:09;;;;;;;2.93;2.17;;;20.10;99.90;;;;;;5032239;28;20178;-78
2023/07/24 04:33:35;;;;;;;2.40;2.00;;;20.10;99.90;;;;;;5031027;28;20194;-78
2023/07/24 04:36:01;;;;;;;4.43;2.80;;;20.10;99.90;;;;;;5025878;28;20637;-77
2023/07/24 04:38:26;;;;;;;3.80;2.83;;;20.10;99.90;;;;;;5020109;28;20166;-77
2023/07/24 04:40:52;;;;;;;4.37;2.43;;;20.10;99.90;;;;;;5021779;28;20273;-78
2023/07/24 04:43:18;;;;;;;4.73;2.23;;;20.10;99.90;;;;;;5030966;28;20911;-77
2023/07/24 04:45:43;;;;;;;5.73;2.27;;;20.10;99.90;;;;;;5010873;28;20202;-77
2023/07/24 04:48:09;;;;;;;2.87;2.10;;;20.20;99.90;;;;;;5010056;28;20649;-77
2023/07/24 04:50:35;;;;;;;4.57;2.63;;;20.20;99.90;;;;;;4996855;28;20187;-77
2023/07/24 04:53:01;;;;;;;3.27;2.53;;;20.20;99.90;;;;;;4989441;28;20632;-77
2023/07/24 04:55:26;;;;;;;5.90;2.70;;;20.20;99.90;;;;;;4991671;28;20939;-77
2023/07/24 04:57:52;;;;;;;3.53;2.60;;;20.20;99.90;;;;;;4990350;28;20294;-78
2023/07/24 05:00:18;;;;;;;4.43;2.87;;;20.20;99.90;;;;;;4991133;28;20187;-78
2023/07/24 05:02:43;;;;;;;3.90;2.50;;;20.30;99.90;;;;;;4989761;28;20217;-78
2023/07/24 05:05:09;;;;;;;4.63;2.50;;;20.30;99.90;;;;;;5006722;28;20816;-78
2023/07/24 05:07:35;;;;;;;3.10;2.50;;;20.40;99.90;;;;;;4991100;28;20163;-79
2023/07/24 05:10:01;;;;;;;3.50;2.20;;;20.40;99.90;;;;;;4973468;28;20512;-78
2023/07/24 05:12:26;;;;;;;3.90;2.73;;;20.50;99.90;;;;;;4989516;28;20186;-77
2023/07/24 05:14:52;;;;;;;4.57;3.03;;;20.50;99.90;;;;;;4991796;28;20201;-78
2023/07/24 05:17:18;;;;;;;2.90;2.40;;;20.60;99.90;;;;;;4989664;28;20274;-79
2023/07/24 05:19:44;;;;;;;2.67;2.07;;;20.70;99.90;;;;;;4989969;28;20650;-79
2023/07/24 05:22:10;;;;;;;4.07;2.40;;;20.80;99.90;;;;;;5006375;28;20177;-78
2023/07/24 05:24:38;;;;;;;2.83;2.10;;;20.80;99.90;;;;;;4989398;28;20202;-78
2023/07/24 05:27:05;;;;;;;5.80;2.80;;;21.00;99.90;;;;;;5007068;28;21205;-78
2023/07/24 05:29:31;;;;;;;2.93;2.07;;;21.10;99.90;;;;;;4990511;28;20571;-77
2023/07/24 05:31:58;;;;;;;4.73;2.73;;;21.20;99.90;;;;;;4989422;28;20589;-79
2023/07/24 05:34:25;;;;;;;4.20;2.63;;;21.40;99.90;;;;;;4973358;28;20578;-79
2023/07/24 05:36:50;;;;;;;5.53;2.97;;;21.50;99.90;;;;;;4978686;28;21267;-78
2023/07/24 05:39:16;;;;;;;3.13;2.37;;;21.80;99.90;;;;;;4997791;28;20692;-77
2023/07/24 05:41:42;;;;;;;3.60;2.20;;;22.10;99.90;;;;;;5026766;28;20239;-77
2023/07/24 05:44:07;;;;;;;4.50;2.43;;;22.40;99.90;;;;;;5026910;28;20177;-79
2023/07/24 05:46:33;;;;;;;3.60;2.70;;;22.50;99.90;;;;;;5017759;28;20213;-76
2023/07/24 05:49:01;;;;;;;3.43;2.43;;;22.70;99.90;;;;;;4989214;28;20262;-79
2023/07/24 05:51:27;;;;;;;5.83;3.30;;;22.90;99.90;;;;;;4990086;28;20584;-77
2023/07/24 05:53:53;;;;;;;4.67;2.67;;;23.20;99.90;;;;;;5024219;28;20601;-77
2023/07/24 05:56:19;;;;;;;5.90;3.33;;;23.40;99.90;;;;;;5007842;28;20728;-79
2023/07/24 05:58:45;;;;;;;4.33;2.33;;;24.00;99.90;;;;;;5009007;28;20184;-79
2023/07/24 06:01:11;;;;;;;5.63;2.97;;;24.90;99.90;;;;;;5010515;28;21087;-78
2023/07/24 06:03:38;;;;;;;3.30;2.50;;;25.50;99.90;;;;;;5009539;28;20190;-79
2023/07/24 06:06:04;;;;;;;4.27;2.27;;;26.30;99.90;;;;;;5011076;28;20640;-79
2023/07/24 06:08:30;;;;;;;3.60;2.50;;;27.00;99.90;;;;;;5011212;28;20569;-79
2023/07/24 06:10:55;;;;;;;4.27;2.33;;;27.80;99.90;;;;;;5010747;28;20602;-79
2023/07/24 06:13:22;;;;;;;3.07;1.97;;;28.20;99.90;;;;;;5010640;28;20544;-79
2023/07/24 06:15:48;;;;;;;3.00;2.10;;;28.40;99.90;;;;;;5028213;28;20202;-79
2023/07/24 06:18:14;;;;;;;5.90;2.50;;;28.40;99.90;;;;;;5012015;28;20604;-79
2023/07/24 06:20:40;;;;;;;3.50;2.67;;;28.30;99.90;;;;;;5012405;28;20581;-79
2023/07/24 06:23:06;;;;;;;2.80;2.27;;;28.10;99.90;;;;;;4995634;28;20221;-79
2023/07/24 06:25:32;;;;;;;2.80;1.73;;;27.80;99.90;;;;;;5012488;28;20652;-80
2023/07/24 06:27:58;;;;;;;3.33;2.40;;;27.50;99.90;;;;;;5011880;28;20538;-79
2023/07/24 06:30:24;;;;;;;3.30;2.43;;;27.30;99.90;;;;;;5029253;28;20584;-79
2023/07/24 06:32:50;;;;;;;5.50;2.37;;;27.00;99.90;;;;;;5011991;28;21267;-80
2023/07/24 06:35:15;;;;;;;4.47;2.07;;;26.80;99.90;;;;;;5012625;28;20711;-79
2023/07/24 06:37:41;;;;;;;3.70;2.13;;;26.60;99.90;;;;;;5000103;28;21099;-79
2023/07/24 06:40:08;;;;;;;4.73;2.27;;;26.40;99.90;;;;;;5012207;28;20553;-79
2023/07/24 06:42:34;;;;;;;2.63;2.03;;;26.10;99.90;;;;;;5011922;28;20245;-80
2023/07/24 06:45:00;;;;;;;2.80;1.60;;;25.90;99.90;;;;;;4995798;28;20652;-80
2023/07/24 06:47:26;;;;;;;4.20;2.73;;;25.80;99.90;;;;;;5011802;28;20581;-80
2023/07/24 06:49:52;;;;;;;3.57;2.30;;;25.60;99.90;;;;;;5012834;28;21192;-80
2023/07/24 06:52:18;;;;;;;2.87;1.77;;;25.50;99.90;;;;;;5011933;28;20182;-80
2023/07/24 06:54:43;;;;;;;2.63;1.57;;;25.30;99.90;;;;;;5013083;28;20248;-80
2023/07/24 06:57:09;;;;;;;3.53;1.93;;;25.20;99.90;;;;;;5012190;28;20638;-79
2023/07/24 06:59:35;;;;;;;2.63;1.83;;;25.10;99.90;;;;;;5012535;28;20178;-80
2023/07/24 07:02:01;;;;;;;3.17;1.70;;;25.10;99.90;;;;;;5012006;28;20669;-79
2023/07/24 07:04:27;;;;;;;3.10;1.93;;;25.00;99.90;;;;;;5011502;28;20198;-78
2023/07/24 07:06:53;;;;;;;3.30;2.20;;;25.10;99.90;;;;;;5011969;28;20604;-79
2023/07/24 07:09:19;;;;;;;5.97;2.80;;;25.20;99.90;;;;;;5011832;28;20178;-79
2023/07/24 07:11:44;;;;;;;3.30;1.77;;;25.30;99.90;;;;;;5013144;28;20232;-79
2023/07/24 07:14:10;;;;;;;2.40;1.90;;;25.50;99.90;;;;;;5033011;28;20186;-80
2023/07/24 07:16:36;;;;;;;2.20;1.20;;;25.80;99.90;;;;;;5011646;28;20253;-77
2023/07/24 07:19:02;;;;;;;2.30;1.50;;;26.00;99.90;;;;;;4995005;28;21254;-80
2023/07/24 07:21:28;;;;;;;3.10;1.63;;;26.10;99.90;;;;;;5013400;28;20170;-79
2023/07/24 07:23:54;;;;;;;2.30;1.80;;;26.20;99.90;;;;;;5012695;28;20931;-79
2023/07/24 07:26:22;;;;;;;2.70;1.70;;;26.20;99.90;;;;;;5013157;28;20214;-80
2023/07/24 07:28:47;;;;;;;3.00;1.83;;;26.20;99.90;;;;;;5012344;28;20616;-80
2023/07/24 07:31:13;;;;;;;2.10;1.30;;;26.10;99.90;;;;;;5011559;28;21069;-79
2023/07/24 07:33:39;;;;;;;2.37;1.50;;;26.10;99.90;;;;;;5011938;28;20696;-80
2023/07/24 07:36:05;;;;;;;2.13;1.37;;;25.90;99.90;;;;;;5012150;28;20293;-79
2023/07/24 07:38:32;;;;;;;2.00;1.20;;;25.80;99.90;;;;;;5013151;28;20185;-79
2023/07/24 07:40:58;;;;;;;3.07;1.57;;;25.80;99.90;;;;;;5012689;28;20597;-79
2023/07/24 07:43:23;;;;;;;2.80;1.70;;;25.70;99.90;;;;;;5014628;28;20573;-79
2023/07/24 07:45:49;;;;;;;2.67;2.17;;;25.70;99.90;;;;;;5014856;28;20220;-79
2023/07/24 07:48:15;;;;;;;3.33;1.80;;;25.70;99.90;;;;;;5012444;28;20589;-79
2023/07/24 07:50:41;;;;;;;2.17;1.23;;;25.80;99.90;;;;;;5021938;28;20170;-78
2023/07/24 07:53:06;;;;;;;5.03;2.20;;;25.90;99.90;;;;;;5017360;28;20174;-79
2023/07/24 07:55:32;;;;;;;2.83;1.57;;;26.00;99.90;;;;;;5013442;28;20256;-79
2023/07/24 07:57:58;;;;;;;2.20;1.40;;;26.10;99.90;;;;;;5011714;28;20174;-78
2023/07/24 08:00:23;;;;;;;2.60;1.50;;;26.10;99.90;;;;;;5011123;28;20178;-78
2023/07/24 08:02:49;;;;;;;2.20;1.53;;;26.30;99.90;;;;;;5011761;28;20545;-77
2023/07/24 08:05:16;;;;;;;3.33;2.07;;;26.30;99.90;;;;;;5011984;28;20213;-77
2023/07/24 08:07:41;;;;;;;3.50;2.07;;;26.40;99.90;;;;;;5027026;28;20178;-77
2023/07/24 08:10:07;;;;;;;3.33;1.70;;;26.50;99.90;;;;;;5010277;28;20571;-77
2023/07/24 08:12:33;;;;;;;2.73;1.47;;;26.60;99.90;;;;;;5009919;28;20178;-78
2023/07/24 08:14:59;;;;;;;2.40;1.70;;;26.80;99.90;;;;;;5011438;28;20625;-77
2023/07/24 08:17:25;;;;;;;2.27;1.20;;;27.00;99.90;;;;;;5009971;28;20582;-77
2023/07/24 08:19:51;;;;;;;2.30;1.40;;;27.10;99.90;;;;;;5010399;28;20216;-78
2023/07/24 08:22:19;;;;;;;3.80;2.00;;;27.20;99.90;;;;;;5011235;28;20174;-78
2023/07/24 08:24:45;;;;;;;2.20;1.37;;;27.20;99.90;;;;;;5011655;28;20640;-79
2023/07/24 08:27:11;;;;;;;2.23;1.63;;;27.20;99.90;;;;;;5014222;28;21125;-78
2023/07/24 08:29:37;;;;;;;2.43;1.37;;;27.10;99.90;;;;;;5009492;28;20577;-79
2023/07/24 08:32:04;;;;;;;3.53;1.87;;;27.00;99.90;;;;;;5026643;28;20190;-78
2023/07/24 08:34:30;;;;;;;3.97;1.63;;;26.90;99.90;;;;;;5011425;28;20627;-78
2023/07/24 08:36:55;;;;;;;2.53;1.20;;;26.70;99.90;;;;;;5011475;28;20672;-78
2023/07/24 08:39:21;;;;;;;2.00;1.40;;;26.60;99.90;;;;;;5010768;28;20202;-78
2023/07/24 08:41:47;;;;;;;2.93;1.70;;;26.50;99.90;;;;;;5009994;28;20174;-78
2023/07/24 08:44:13;;;;;;;2.47;2.10;;;26.40;99.90;;;;;;5009708;28;20182;-79
2023/07/24 08:46:41;;;;;;;2.20;1.40;;;26.40;99.90;;;;;;5026689;28;20258;-79
2023/07/24 08:49:11;;;;;;;2.33;1.63;;;26.40;99.90;;;;;;5010741;28;20610;-79
2023/07/24 08:51:37;;;;;;;3.13;1.90;;;26.50;99.90;;;;;;5026209;28;20586;-79
2023/07/24 08:54:04;;;;;;;2.60;1.90;;;26.80;99.90;;;;;;5009741;28;20586;-78
2023/07/24 08:56:30;;;;;;;3.20;2.07;;;27.00;99.90;;;;;;5009900;28;20655;-78
2023/07/24 08:58:56;;;;;;;2.10;1.37;;;27.20;99.90;;;;;;5025437;28;20655;-78
2023/07/24 09:01:22;;;;;;;2.17;1.50;;;27.50;99.90;;;;;;5009575;28;20613;-78
2023/07/24 09:03:47;;;;;;;2.47;1.90;;;27.70;99.90;;;;;;5014027;28;20173;-79
2023/07/24 09:06:13;;;;;;;2.77;1.70;;;27.90;99.90;;;;;;5010568;28;20293;-78
2023/07/24 09:08:43;;;;;;;3.17;1.60;;;28.00;99.90;;;;;;5025651;28;20175;-79
2023/07/24 09:11:10;;;;;;;2.90;1.73;;;28.00;99.90;;;;;;5010529;28;20640;-79
2023/07/24 09:13:38;;;;;;;2.47;1.80;;;28.10;99.90;;;;;;5026079;28;20585;-79
2023/07/24 09:16:04;;;;;;;3.17;1.50;;;28.10;99.90;;;;;;5010832;28;20658;-79
2023/07/24 09:18:43;;;;;;;2.93;1.60;;;28.10;99.90;;;;;;5010405;28;20589;-79
2023/07/24 09:21:12;;;;;;;2.20;1.40;;;28.10;99.90;;;;;;5009354;28;20614;-79
2023/07/24 09:23:43;;;;;;;2.40;1.57;;;28.20;99.90;;;;;;5009827;28;20921;-80
2023/07/24 09:26:09;;;;;;;2.40;1.30;;;28.20;99.90;;;;;;5009220;28;20640;-79
2023/07/24 09:28:35;;;;;;;2.67;1.50;;;28.20;99.90;;;;;;5010318;28;20641;-79
2023/07/24 09:31:01;;;;;;;2.33;1.30;;;28.10;99.90;;;;;;5026406;28;21109;-77
2023/07/24 09:33:34;;;;;;;2.10;1.53;;;28.10;99.90;;;;;;5010597;28;20652;-78
2023/07/24 09:36:01;;;;;;;1.80;1.07;;;28.00;99.90;;;;;;5012408;28;20614;-78
2023/07/24 09:38:27;;;;;;;1.90;1.13;;;27.90;99.90;;;;;;5025449;28;20676;-79
2023/07/24 09:40:55;;;;;;;2.20;1.30;;;27.80;99.90;;;;;;5002058;28;20671;-79
2023/07/24 09:43:22;;;;;;;2.63;1.50;;;27.70;99.90;;;;;;5014417;28;20176;-79
2023/07/24 09:45:49;;;;;;;2.50;1.30;;;27.60;99.90;;;;;;5013105;28;20652;-79
2023/07/24 09:48:16;;;;;;;2.13;1.37;;;27.50;99.90;;;;;;5013433;28;20576;-79
2023/07/24 09:50:45;;;;;;;2.87;1.10;;;27.40;99.90;;;;;;5014622;28;20584;-78
2023/07/24 09:53:14;;;;;;;1.70;1.13;;;27.30;99.90;;;;;;5013066;28;21019;-78
2023/07/24 09:56:08;;;;;;;1.77;1.10;;;27.30;99.90;;;;;;4996409;28;20624;-78
2023/07/24 09:58:38;;;;;;;1.77;1.10;;;27.20;99.90;;;;;;4995900;28;20651;-78
2023/07/24 10:01:06;;;;;;;2.33;1.30;;;27.30;99.90;;;;;;5014194;28;20582;-78
2023/07/24 10:03:40;;;;;;;2.63;1.30;;;27.30;99.90;;;;;;5012761;28;20593;-78
2023/07/24 10:06:10;;;;;;;2.17;1.20;;;27.30;99.90;;;;;;5014362;28;20702;-79
2023/07/24 10:08:36;;;;;;;2.77;1.53;;;27.30;99.90;;;;;;5013666;28;20968;-77
2023/07/24 10:11:03;;;;;;;2.67;1.30;;;27.30;99.90;;;;;;5013892;28;20579;-76
2023/07/24 10:13:29;;;;;;;2.00;1.00;;;27.30;99.90;;;;;;5013727;28;20592;-77
2023/07/24 10:15:56;;;;;;;2.63;1.63;;;27.30;99.90;;;;;;5014957;28;20981;-77
2023/07/24 10:18:31;;;;;;;2.20;1.63;;;27.40;99.90;;;;;;5031032;28;21164;-78
2023/07/24 10:21:05;;;;;;;2.30;1.50;;;27.60;99.90;;;;;;5012930;28;20906;-78
2023/07/24 10:23:33;;;;;;;2.93;1.20;;;27.80;99.90;;;;;;5028900;28;20909;-78
2023/07/24 10:26:06;;;;;;;1.80;1.20;;;28.30;99.90;;;;;;5012615;28;20664;-79
2023/07/24 10:28:34;;;;;;;1.90;1.20;;;28.90;99.90;;;;;;4995629;28;21319;-79
2023/07/24 10:31:04;;;;;;;2.23;1.43;;;29.90;99.90;;;;;;4996328;28;20581;-79
2023/07/24 10:33:31;;;;;;;3.60;1.40;;;30.70;99.90;;;;;;5028865;28;20580;-80
2023/07/24 10:36:10;;;;;;;2.60;1.40;;;31.40;99.90;;;;;;5012022;28;20678;-79
2023/07/24 10:38:38;;;;;;;1.93;1.17;;;32.00;99.90;;;;;;5012151;28;20669;-78
2023/07/24 10:41:06;;;;;;;2.10;1.10;;;32.60;99.90;;;;;;4995753;28;20587;-79
2023/07/24 10:43:48;;;;;;;1.87;1.20;;;32.90;99.90;;;;;;5012426;28;20589;-78
2023/07/24 10:46:15;;;;;;;2.13;1.33;;;33.00;99.50;;;;;;5013375;28;20649;-78
2023/07/24 10:48:45;;;;;;;4.07;1.43;;;33.00;98.70;;;;;;5013267;28;20578;-79
2023/07/24 10:51:14;;;;;;;1.70;1.03;;;32.80;97.20;;;;;;5012102;28;20589;-78
2023/07/24 10:53:45;;;;;;;2.03;1.43;;;32.50;96.90;;;;;;5016839;28;20582;-78
2023/07/24 10:56:10;;;;;;;1.80;1.10;;;32.20;95.90;;;;;;5013144;28;20636;-79
2023/07/24 10:58:36;;;;;;;2.17;1.10;;;31.90;95.50;;;;;;5011590;28;20584;-78
2023/07/24 11:01:06;;;;;;;3.30;1.77;;;31.50;95.00;;;;;;5011240;28;20174;-78
2023/07/24 11:03:35;;;;;;;1.90;1.20;;;31.10;94.50;;;;;;5028013;28;20182;-79
2023/07/24 11:06:02;;;;;;;2.47;1.37;;;30.70;95.20;;;;;;5012839;28;20601;-78
2023/07/24 11:08:28;;;;;;;2.73;1.30;;;30.20;95.20;;;;;;5012837;28;20671;-78
2023/07/24 11:10:56;;;;;;;2.00;1.27;;;29.80;95.60;;;;;;5011560;28;20656;-78
2023/07/24 11:13:24;;;;;;;2.40;1.47;;;29.50;97.00;;;;;;4995211;28;20193;-79
2023/07/24 11:15:51;;;;;;;4.30;2.47;;;29.40;97.80;;;;;;5012641;28;20700;-79
2023/07/24 11:18:20;;;;;;;2.50;1.57;;;29.30;97.70;;;;;;4994935;28;20629;-78
2023/07/24 11:20:52;;;;;;;2.67;1.60;;;29.00;97.10;;;;;;5012897;28;20630;-79
2023/07/24 11:23:18;;;;;;;2.10;1.33;;;28.80;97.50;;;;;;5012320;28;20650;-79
2023/07/24 11:25:44;;;;;;;3.00;2.30;;;28.70;97.60;;;;;;5012571;28;20677;-79
2023/07/24 11:28:13;;;;;;;2.43;1.67;;;28.60;97.60;;;;;;5010668;28;20649;-78
2023/07/24 11:30:39;;;;;;;2.33;1.37;;;28.40;98.00;;;;;;5015848;28;20605;-78
2023/07/24 11:33:08;;;;;;;2.30;1.57;;;28.20;98.50;;;;;;5027533;28;20578;-79
2023/07/24 11:35:35;;;;;;;2.00;1.30;;;28.30;99.10;;;;;;5027776;28;20644;-79
2023/07/24 11:38:04;;;;;;;3.33;1.90;;;28.40;99.60;;;;;;5010733;28;20633;-79
2023/07/24 11:40:40;;;;;;;2.40;1.50;;;28.40;98.90;;;;;;5012677;28;21144;-79
2023/07/24 11:43:16;;;;;;;4.40;2.27;;;28.20;97.60;;;;;;5032046;28;20601;-79
2023/07/24 11:45:43;;;;;;;5.90;1.73;;;28.00;99.90;;;;;;5055278;28;20648;-79
2023/07/24 11:48:10;;;;;;;3.93;2.13;;;27.40;99.90;;;;;;5037473;28;20632;-75
2023/07/24 11:50:47;;;;;;;2.50;1.40;;;26.50;99.90;;;;;;5011028;28;20569;-75
2023/07/24 11:53:25;;;;;;;2.93;1.40;;;25.70;99.90;;;;;;5010310;28;20585;-75
2023/07/24 11:55:57;;;;;;;6.80;1.33;;;24.90;99.90;;;;;;5010512;28;20656;-75
2023/07/24 11:58:25;;;;;;;2.50;1.27;;;24.20;99.90;;;;;;5011220;28;20609;-74
2023/07/24 12:00:52;;;;;;;3.07;0.80;;;23.60;99.90;;;;;;5010868;28;20605;-76
2023/07/24 12:03:25;;;;;;;2.17;0.90;;;23.20;99.90;;;;;;5011537;28;20975;-75
2023/07/24 12:05:50;;;;;;;1.80;0.90;;;22.80;99.90;;;;;;5010721;28;20679;-75
2023/07/24 12:08:18;;;;;;;2.77;1.00;;;22.60;99.90;;;;;;5011318;28;20593;-75
2023/07/24 12:10:44;;;;;;;2.03;1.00;;;22.40;99.90;;;;;;5011836;28;20220;-75
2023/07/24 12:13:10;;;;;;;1.70;0.90;;;22.20;99.90;;;;;;5011572;28;20684;-76
2023/07/24 12:15:37;;;;;;;1.80;0.90;;;22.10;99.90;;;;;;5011353;28;20286;-76
2023/07/24 12:18:04;;;;;;;2.10;1.00;;;22.10;99.90;;;;;;5026876;28;20573;-80
2023/07/24 12:20:30;;;;;;;2.30;1.07;;;22.00;99.90;;;;;;5014549;28;20589;-80
2023/07/24 12:22:56;;;;;;;2.53;1.00;;;22.00;99.90;;;;;;5026263;28;20573;-81
2023/07/24 12:25:22;;;;;;;2.50;1.13;;;22.00;99.90;;;;;;5028322;28;20650;-82
2023/07/24 12:27:48;;;;;;;2.77;1.10;;;21.90;99.90;;;;;;5040978;28;21048;-81
2023/07/24 12:30:14;;;;;;;2.70;0.80;;;21.90;99.90;;;;;;5015102;28;20589;-80
2023/07/24 12:32:39;;;;;;;3.30;1.00;;;21.90;99.90;;;;;;5012727;28;20724;-80
2023/07/24 12:35:07;;;;;;;2.07;1.13;;;21.90;99.90;;;;;;5016277;28;20204;-80
2023/07/24 12:37:33;;;;;;;2.00;0.90;;;21.90;99.90;;;;;;5013452;28;20274;-80
2023/07/24 12:39:58;;;;;;;2.10;0.90;;;21.90;99.90;;;;;;5009573;28;21006;-80
2023/07/24 12:42:24;;;;;;;2.70;1.00;;;21.90;99.90;;;;;;5027360;28;20233;-79
2023/07/24 12:44:50;;;;;;;2.50;1.13;;;22.00;99.90;;;;;;5014618;28;20409;-79
2023/07/24 12:47:15;;;;;;;2.00;1.30;;;22.00;99.90;;;;;;5011207;28;20232;-79